createdAt,value
2023-03-08T00:01:45.810Z,58.50
2023-03-08T00:06:48.069Z,58.50
2023-03-08T00:11:51.168Z,58.40
2023-03-08T00:16:54.911Z,58.40
2023-03-08T00:21:57.191Z,58.50
2023-03-08T00:26:59.436Z,58.50
2023-03-08T00:32:01.710Z,58.50
2023-03-08T00:37:04.003Z,58.30
2023-03-08T00:42:06.373Z,58.40
2023-03-08T00:47:08.655Z,58.40
2023-03-08T00:52:10.939Z,58.30
2023-03-08T00:57:13.196Z,58.60
2023-03-08T01:02:15.529Z,58.60
2023-03-08T01:07:18.267Z,58.70
2023-03-08T01:12:22.735Z,58.60
2023-03-08T01:17:25.100Z,58.50
2023-03-08T01:22:27.365Z,58.60
2023-03-08T01:27:30.773Z,58.70
2023-03-08T01:32:33.063Z,58.60
2023-03-08T01:37:35.614Z,58.70
2023-03-08T01:42:40.459Z,58.60
2023-03-08T01:47:42.776Z,58.80
2023-03-08T01:52:59.218Z,58.80
2023-03-08T01:58:01.868Z,58.70
2023-03-08T02:03:09.260Z,58.80
2023-03-08T02:08:11.744Z,59.00
2023-03-08T02:13:14.552Z,59.00
2023-03-08T02:18:18.835Z,59.00
2023-03-08T02:23:23.803Z,59.60
2023-03-08T02:28:28.635Z,59.10
2023-03-08T02:33:32.440Z,59.20
2023-03-08T02:38:35.551Z,59.10
2023-03-08T02:43:37.817Z,59.00
2023-03-08T02:48:41.709Z,59.20
2023-03-08T02:53:44.041Z,59.20
2023-03-08T02:58:46.412Z,59.30
2023-03-08T03:03:48.696Z,59.20
2023-03-08T03:08:50.936Z,59.10
2023-03-08T03:13:56.732Z,59.20
2023-03-08T03:19:01.035Z,59.30
2023-03-08T03:24:03.354Z,59.30
2023-03-08T03:29:15.114Z,59.50
2023-03-08T03:34:19.570Z,59.70
2023-03-08T03:39:23.814Z,59.40
2023-03-08T03:44:28.610Z,59.40
2023-03-08T03:49:31.566Z,59.50
2023-03-08T03:54:34.244Z,59.60
2023-03-08T03:59:36.581Z,59.50
2023-03-08T04:04:39.579Z,59.60
2023-03-08T04:09:42.943Z,59.60
2023-03-08T04:14:49.434Z,59.60
2023-03-08T04:19:53.254Z,59.40
2023-03-08T04:24:56.989Z,59.60
2023-03-08T04:30:08.045Z,59.60
2023-03-08T04:35:11.276Z,59.70
2023-03-08T04:40:15.694Z,59.80
2023-03-08T04:45:28.034Z,59.80
2023-03-08T04:50:33.609Z,60.00
2023-03-08T04:55:38.036Z,60.00
2023-03-08T05:00:41.241Z,59.90
2023-03-08T05:05:46.612Z,59.90
2023-03-08T05:10:53.130Z,60.10
2023-03-08T05:15:55.654Z,60.00
2023-03-08T05:21:01.642Z,60.20
2023-03-08T05:26:06.432Z,60.20
2023-03-08T05:31:12.988Z,60.30
2023-03-08T05:36:18.322Z,60.50
2023-03-08T05:41:21.440Z,60.40
2023-03-08T05:46:27.144Z,60.60
2023-03-08T05:51:29.736Z,60.60
2023-03-08T05:56:32.221Z,60.80
2023-03-08T06:01:54.404Z,60.80
2023-03-08T06:07:07.379Z,60.80
2023-03-08T06:12:14.379Z,61.30
2023-03-08T06:17:16.890Z,61.30
2023-03-08T06:22:22.574Z,61.20
2023-03-08T06:27:25.023Z,61.10
2023-03-08T06:32:29.269Z,60.90
2023-03-08T06:37:34.571Z,63.10
2023-03-08T06:42:41.504Z,61.60
2023-03-08T06:47:46.632Z,60.10
2023-03-08T06:52:49.650Z,58.50
2023-03-08T06:57:57.222Z,59.50
2023-03-08T07:02:59.663Z,59.30
2023-03-08T07:08:01.989Z,56.10
2023-03-08T07:13:04.342Z,54.60
2023-03-08T07:18:06.621Z,53.80
2023-03-08T07:23:08.910Z,55.60
2023-03-08T07:28:11.469Z,54.40
2023-03-08T07:33:13.937Z,52.30
2023-03-08T07:38:17.245Z,52.40
2023-03-08T07:43:19.466Z,52.60
2023-03-08T07:48:33.213Z,53.70
2023-03-08T07:53:36.745Z,55.40
2023-03-08T07:58:39.593Z,55.70
2023-03-08T08:03:42.127Z,55.90
2023-03-08T08:08:44.442Z,52.70
2023-03-08T08:13:47.239Z,53.30
2023-03-08T08:18:52.628Z,51.90
2023-03-08T08:23:57.933Z,52.00
2023-03-08T08:29:00.208Z,51.50
2023-03-08T08:34:03.189Z,49.10
2023-03-08T08:39:05.773Z,50.10
2023-03-08T08:44:08.236Z,47.20
2023-03-08T08:49:11.015Z,48.30
2023-03-08T08:54:13.302Z,44.50
2023-03-08T08:59:16.465Z,41.00
2023-03-08T09:04:20.763Z,44.30
2023-03-08T09:09:23.176Z,42.60
2023-03-08T09:14:25.902Z,42.10
2023-03-08T09:19:28.817Z,42.50
2023-03-08T09:24:31.296Z,42.80
2023-03-08T09:29:34.905Z,40.10
2023-03-08T09:34:37.228Z,37.20
2023-03-08T09:39:40.700Z,38.70
2023-03-08T09:49:59.531Z,39.30
2023-03-08T09:55:03.081Z,40.20
2023-03-08T10:00:23.650Z,40.90
2023-03-08T10:05:50.738Z,41.10
2023-03-08T10:11:00.576Z,41.60
2023-03-08T10:16:24.388Z,42.30
2023-03-08T10:21:29.865Z,43.10
2023-03-08T10:26:32.119Z,43.50
2023-03-08T10:31:34.377Z,43.50
2023-03-08T10:36:52.424Z,43.50
2023-03-08T10:47:18.301Z,43.60
2023-03-08T10:52:26.613Z,43.90
2023-03-08T10:57:29.748Z,43.30
2023-03-08T11:02:32.041Z,43.20
2023-03-08T11:07:34.803Z,43.60
2023-03-08T11:12:37.961Z,42.90
2023-03-08T11:17:55.279Z,42.10
2023-03-08T11:39:04.805Z,41.30
2023-03-08T11:55:05.389Z,41.60
2023-03-08T12:00:23.726Z,41.00
2023-03-08T12:11:01.949Z,41.00
2023-03-08T12:16:15.537Z,41.50
2023-03-08T12:26:36.247Z,40.30
2023-03-08T12:31:45.939Z,40.80
2023-03-08T12:36:48.352Z,40.10
2023-03-08T12:47:22.860Z,40.10
2023-03-08T12:52:31.440Z,40.40
2023-03-08T12:57:43.018Z,41.30
2023-03-08T13:02:45.437Z,41.20
2023-03-08T13:08:12.912Z,41.60
2023-03-08T13:18:26.504Z,42.40
2023-03-08T13:23:37.908Z,43.40
2023-03-08T13:28:47.827Z,44.30
2023-03-08T13:33:53.763Z,44.10
2023-03-08T13:44:19.668Z,44.80
2023-03-08T13:54:38.333Z,45.60
2023-03-08T13:59:52.452Z,46.10
2023-03-08T14:04:55.698Z,46.20
2023-03-08T14:09:58.688Z,46.40
2023-03-08T14:15:05.386Z,46.40
2023-03-08T14:20:21.305Z,46.30
2023-03-08T14:25:28.926Z,46.40
2023-03-08T14:30:31.342Z,46.90
2023-03-08T14:35:38.655Z,46.90
2023-03-08T14:40:49.369Z,47.40
2023-03-08T14:46:03.385Z,47.50
2023-03-08T14:56:17.258Z,48.90
2023-03-08T15:01:30.987Z,51.40
2023-03-08T15:06:36.172Z,51.50
2023-03-08T15:11:38.512Z,52.20
2023-03-08T15:16:41.341Z,51.50
2023-03-08T15:21:43.750Z,51.20
2023-03-08T15:26:46.913Z,51.60
2023-03-08T15:31:49.148Z,51.70
2023-03-08T15:36:52.716Z,51.70
2023-03-08T15:41:54.933Z,52.40
2023-03-08T15:46:57.176Z,52.00
2023-03-08T15:51:59.436Z,52.10
2023-03-08T15:57:01.661Z,52.10
2023-03-08T16:02:04.164Z,52.00
2023-03-08T16:07:06.408Z,52.20
2023-03-08T16:12:09.229Z,52.00
2023-03-08T16:17:11.476Z,51.80
2023-03-08T16:22:13.744Z,51.80
2023-03-08T16:27:16.634Z,51.90
2023-03-08T16:32:19.790Z,51.70
2023-03-08T16:37:22.106Z,51.30
2023-03-08T16:42:24.653Z,51.20
2023-03-08T16:47:27.056Z,51.10
2023-03-08T16:52:29.317Z,50.90
2023-03-08T16:57:31.568Z,50.90
2023-03-08T17:02:33.937Z,50.60
2023-03-08T17:07:36.438Z,50.50
2023-03-08T17:12:38.711Z,50.50
2023-03-08T17:17:41.436Z,50.40
2023-03-08T17:22:43.672Z,50.00
2023-03-08T17:27:45.921Z,49.90
2023-03-08T17:32:48.194Z,49.80
2023-03-08T17:37:51.656Z,49.70
2023-03-08T17:42:54.015Z,49.60
2023-03-08T17:48:01.315Z,49.50
2023-03-08T17:53:03.875Z,49.30
2023-03-08T17:58:06.113Z,48.80
2023-03-08T18:03:08.381Z,49.10
2023-03-08T18:08:10.761Z,49.00
2023-03-08T18:13:13.132Z,49.00
2023-03-08T18:18:15.461Z,48.90
2023-03-08T18:23:17.676Z,48.90
2023-03-08T18:28:19.900Z,48.90
2023-03-08T18:33:22.872Z,48.80
2023-03-08T18:38:25.731Z,48.60
2023-03-08T18:43:27.942Z,48.60
2023-03-08T18:48:30.184Z,48.40
2023-03-08T18:53:32.657Z,48.20
2023-03-08T18:58:34.962Z,48.20
2023-03-08T19:03:37.641Z,48.00
2023-03-08T19:08:40.852Z,47.80
2023-03-08T19:13:43.879Z,48.00
2023-03-08T19:18:47.047Z,47.90
2023-03-08T19:23:49.546Z,47.90
2023-03-08T19:28:51.969Z,47.60
2023-03-08T19:33:54.505Z,47.60
2023-03-08T19:38:57.593Z,47.60
2023-03-08T19:44:00.734Z,47.50
2023-03-08T19:49:04.020Z,47.40
2023-03-08T19:54:06.865Z,47.30
2023-03-08T19:59:09.987Z,47.30
2023-03-08T20:04:12.858Z,47.30
2023-03-08T20:09:21.667Z,47.20
2023-03-08T20:14:24.805Z,46.50
2023-03-08T20:19:31.776Z,47.40
2023-03-08T20:24:34.104Z,48.00
2023-03-08T20:29:36.298Z,48.20
2023-03-08T20:34:38.840Z,48.30
2023-03-08T20:39:41.333Z,48.50
2023-03-08T20:44:43.564Z,48.60
2023-03-08T20:49:45.759Z,48.70
2023-03-08T20:54:47.922Z,48.70
2023-03-08T20:59:50.440Z,48.70
2023-03-08T21:04:52.735Z,48.80
2023-03-08T21:09:55.026Z,48.80
2023-03-08T21:14:58.749Z,48.90
2023-03-08T21:20:00.956Z,49.00
2023-03-08T21:25:03.305Z,48.90
2023-03-08T21:30:06.750Z,48.80
2023-03-08T21:35:09.804Z,48.80
2023-03-08T21:40:12.500Z,48.70
2023-03-08T21:45:14.764Z,48.70
2023-03-08T21:50:17.492Z,48.70
2023-03-08T21:55:19.824Z,48.60
2023-03-08T22:00:22.130Z,48.50
2023-03-08T22:05:24.403Z,48.30
2023-03-08T22:10:26.674Z,48.40
2023-03-08T22:15:28.975Z,48.40
2023-03-08T22:20:31.200Z,48.40
2023-03-08T22:25:33.560Z,48.40
2023-03-08T22:30:35.868Z,48.30
2023-03-08T22:35:38.654Z,48.20
2023-03-08T22:40:42.400Z,48.20
2023-03-08T22:45:44.884Z,48.10
2023-03-08T22:50:47.162Z,48.20
2023-03-08T22:55:49.344Z,48.20
2023-03-08T23:00:51.594Z,48.20
2023-03-08T23:05:54.115Z,48.30
2023-03-08T23:10:56.309Z,48.20
2023-03-08T23:15:58.803Z,48.10
2023-03-08T23:21:04.225Z,48.20
2023-03-08T23:26:08.808Z,48.30
2023-03-08T23:31:15.153Z,48.10
2023-03-08T23:36:19.474Z,48.20
2023-03-08T23:41:21.761Z,48.10
2023-03-08T23:46:25.556Z,48.10
2023-03-08T23:51:29.927Z,48.00
2023-03-08T23:56:38.761Z,48.00
